createdAt,value
2023-04-02T00:02:32.980Z,101245.31
2023-04-02T00:05:37.273Z,101249.63
2023-04-02T00:08:24.846Z,101263.88
2023-04-02T00:11:12.082Z,101263.13
2023-04-02T00:13:59.860Z,101261.72
2023-04-02T00:16:47.484Z,101271.38
2023-04-02T00:19:38.682Z,101263.88
2023-04-02T00:22:26.528Z,101278.78
2023-04-02T00:25:13.857Z,101280.00
2023-04-02T00:27:59.567Z,101274.59
2023-04-02T00:30:49.167Z,101277.78
2023-04-02T00:33:36.492Z,101270.34
2023-04-02T00:36:26.636Z,101279.41
2023-04-02T00:39:17.423Z,101278.75
2023-04-02T00:42:13.169Z,101275.75
2023-04-02T00:45:10.171Z,101271.63
2023-04-02T00:47:59.705Z,101279.69
2023-04-02T00:50:53.529Z,101275.53
2023-04-02T00:53:42.409Z,101283.16
2023-04-02T00:56:31.597Z,101273.91
2023-04-02T00:59:28.882Z,101280.78
2023-04-02T01:02:30.625Z,101273.78
2023-04-02T01:05:24.799Z,101266.41
2023-04-02T01:08:14.253Z,101259.66
2023-04-02T01:11:06.962Z,101257.13
2023-04-02T01:13:54.269Z,101252.81
2023-04-02T01:16:42.279Z,101249.75
2023-04-02T01:19:45.817Z,101245.25
2023-04-02T01:22:35.255Z,101249.66
2023-04-02T01:25:25.976Z,101246.84
2023-04-02T01:28:14.693Z,101249.16
2023-04-02T01:31:02.688Z,101253.38
2023-04-02T01:33:49.166Z,101265.75
2023-04-02T01:36:37.840Z,101270.72
2023-04-02T01:39:27.803Z,101272.34
2023-04-02T01:42:15.166Z,101268.28
2023-04-02T01:45:02.317Z,101273.72
2023-04-02T01:47:50.136Z,101265.66
2023-04-02T01:50:37.852Z,101257.03
2023-04-02T01:53:24.587Z,101261.69
2023-04-02T01:56:10.380Z,101255.09
2023-04-02T01:58:56.863Z,101257.78
2023-04-02T02:01:44.281Z,101259.00
2023-04-02T02:04:31.451Z,101252.56
2023-04-02T02:07:18.771Z,101255.63
2023-04-02T02:10:09.004Z,101250.00
2023-04-02T02:12:55.054Z,101254.91
2023-04-02T02:15:41.195Z,101262.88
2023-04-02T02:18:27.509Z,101264.81
2023-04-02T02:21:14.996Z,101260.25
2023-04-02T02:24:00.813Z,101260.31
2023-04-02T02:26:46.593Z,101255.63
2023-04-02T02:29:33.096Z,101258.06
2023-04-02T02:32:19.229Z,101261.16
2023-04-02T02:35:07.771Z,101260.00
2023-04-02T02:37:55.977Z,101263.78
2023-04-02T02:40:42.622Z,101258.31
2023-04-02T02:43:28.743Z,101269.38
2023-04-02T02:46:15.689Z,101263.03
2023-04-02T02:49:02.036Z,101276.91
2023-04-02T02:51:49.632Z,101274.53
2023-04-02T02:54:44.108Z,101279.59
2023-04-02T02:57:31.183Z,101287.13
2023-04-02T03:00:19.423Z,101291.44
2023-04-02T03:03:06.473Z,101297.19
2023-04-02T03:05:53.175Z,101296.69
2023-04-02T03:08:41.437Z,101302.59
2023-04-02T03:11:33.758Z,101309.47
2023-04-02T03:14:22.487Z,101319.53
2023-04-02T03:17:10.841Z,101313.09
2023-04-02T03:19:57.635Z,101316.28
2023-04-02T03:22:45.332Z,101311.03
2023-04-02T03:25:33.662Z,101310.72
2023-04-02T03:28:21.755Z,101311.56
2023-04-02T03:31:09.350Z,101318.84
2023-04-02T03:33:56.798Z,101317.50
2023-04-02T03:36:46.476Z,101315.22
2023-04-02T03:39:34.413Z,101319.16
2023-04-02T03:42:20.896Z,101307.72
2023-04-02T03:45:11.174Z,101302.06
2023-04-02T03:47:57.887Z,101301.38
2023-04-02T03:50:45.144Z,101310.00
2023-04-02T03:53:32.415Z,101301.91
2023-04-02T03:56:24.052Z,101307.66
2023-04-02T03:59:12.584Z,101314.66
2023-04-02T04:02:01.109Z,101309.50
2023-04-02T04:04:47.396Z,101316.53
2023-04-02T04:07:33.711Z,101315.75
2023-04-02T04:10:20.774Z,101317.38
2023-04-02T04:13:07.362Z,101326.25
2023-04-02T04:15:54.556Z,101320.75
2023-04-02T04:18:44.430Z,101322.34
2023-04-02T04:21:38.011Z,101326.97
2023-04-02T04:24:32.552Z,101316.31
2023-04-02T04:27:24.269Z,101327.44
2023-04-02T04:30:16.891Z,101320.50
2023-04-02T04:33:04.653Z,101330.66
2023-04-02T04:35:54.110Z,101340.63
2023-04-02T04:38:40.853Z,101327.72
2023-04-02T04:41:33.001Z,101335.59
2023-04-02T04:44:21.014Z,101342.38
2023-04-02T04:47:09.116Z,101344.00
2023-04-02T04:49:55.349Z,101349.47
2023-04-02T04:52:43.673Z,101361.78
2023-04-02T04:55:34.159Z,101358.19
2023-04-02T04:58:22.368Z,101377.38
2023-04-02T05:01:11.667Z,101375.69
2023-04-02T05:03:59.365Z,101375.59
2023-04-02T05:06:47.184Z,101383.22
2023-04-02T05:09:36.051Z,101391.44
2023-04-02T05:12:22.887Z,101410.78
2023-04-02T05:15:11.548Z,101407.56
2023-04-02T05:18:03.348Z,101414.50
2023-04-02T05:20:50.527Z,101419.06
2023-04-02T05:23:36.879Z,101424.63
2023-04-02T05:26:24.963Z,101421.75
2023-04-02T05:29:13.002Z,101434.63
2023-04-02T05:32:01.372Z,101436.84
2023-04-02T05:34:47.978Z,101435.94
2023-04-02T05:37:34.096Z,101449.66
2023-04-02T05:40:21.009Z,101450.78
2023-04-02T05:43:10.406Z,101458.66
2023-04-02T05:46:02.189Z,101457.81
2023-04-02T05:48:49.172Z,101466.31
2023-04-02T05:51:36.752Z,101471.22
2023-04-02T05:54:23.536Z,101481.47
2023-04-02T05:57:14.876Z,101495.13
2023-04-02T06:00:05.483Z,101493.50
2023-04-02T06:03:00.167Z,101502.34
2023-04-02T06:05:46.583Z,101503.75
2023-04-02T06:08:35.214Z,101513.41
2023-04-02T06:11:21.821Z,101512.72
2023-04-02T06:14:09.440Z,101508.06
2023-04-02T06:16:57.293Z,101517.97
2023-04-02T06:19:43.672Z,101517.38
2023-04-02T06:22:32.732Z,101527.97
2023-04-02T06:25:19.194Z,101538.44
2023-04-02T06:28:07.249Z,101554.78
2023-04-02T06:30:53.343Z,101557.81
2023-04-02T06:33:41.508Z,101562.97
2023-04-02T06:36:27.871Z,101569.16
2023-04-02T06:39:19.501Z,101573.13
2023-04-02T06:42:09.261Z,101582.41
2023-04-02T06:45:15.221Z,101581.41
2023-04-02T06:48:24.682Z,101583.25
2023-04-02T06:51:16.715Z,101599.69
2023-04-02T06:54:03.005Z,101594.53
2023-04-02T06:56:50.263Z,101598.91
2023-04-02T06:59:43.923Z,101609.09
2023-04-02T07:02:35.691Z,101611.94
2023-04-02T07:05:23.697Z,101611.72
2023-04-02T07:08:12.035Z,101626.50
2023-04-02T07:10:58.421Z,101633.63
2023-04-02T07:13:45.728Z,101629.53
2023-04-02T07:16:33.029Z,101632.59
2023-04-02T07:19:21.104Z,101630.44
2023-04-02T07:22:10.470Z,101645.56
2023-04-02T07:25:01.242Z,101654.75
2023-04-02T07:27:47.316Z,101662.22
2023-04-02T07:30:33.099Z,101665.25
2023-04-02T07:33:19.734Z,101667.94
2023-04-02T07:36:06.428Z,101678.53
2023-04-02T07:38:52.724Z,101678.44
2023-04-02T07:41:52.599Z,101686.75
2023-04-02T07:44:38.682Z,101689.00
2023-04-02T07:47:24.527Z,101697.16
2023-04-02T07:50:10.546Z,101698.97
2023-04-02T07:52:56.946Z,101702.41
2023-04-02T07:55:42.970Z,101705.66
2023-04-02T07:58:30.404Z,101712.53
2023-04-02T08:01:18.409Z,101713.59
2023-04-02T08:04:05.192Z,101715.38
2023-04-02T08:06:52.789Z,101734.06
2023-04-02T08:09:39.917Z,101724.81
2023-04-02T08:12:26.263Z,101733.16
2023-04-02T08:15:15.985Z,101739.81
2023-04-02T08:18:02.110Z,101743.47
2023-04-02T08:20:48.355Z,101756.47
2023-04-02T08:23:35.284Z,101764.22
2023-04-02T08:26:21.924Z,101770.66
2023-04-02T08:29:08.098Z,101778.75
2023-04-02T08:31:55.237Z,101769.06
2023-04-02T08:34:41.091Z,101779.31
2023-04-02T08:37:27.999Z,101779.94
2023-04-02T08:40:19.197Z,101789.22
2023-04-02T08:43:09.645Z,101792.78
2023-04-02T08:46:02.937Z,101799.34
2023-04-02T08:48:50.952Z,101800.75
2023-04-02T08:51:37.265Z,101805.31
2023-04-02T08:54:24.334Z,101810.56
2023-04-02T08:57:12.528Z,101811.88
2023-04-02T09:00:00.031Z,101817.03
2023-04-02T09:02:47.342Z,101817.22
2023-04-02T09:05:35.920Z,101824.00
2023-04-02T09:08:24.392Z,101828.53
2023-04-02T09:11:10.492Z,101831.47
2023-04-02T09:13:58.028Z,101833.03
2023-04-02T09:16:45.018Z,101838.97
2023-04-02T09:19:32.495Z,101847.63
2023-04-02T09:22:20.767Z,101853.16
2023-04-02T09:25:07.514Z,101856.09
2023-04-02T09:27:54.377Z,101865.78
2023-04-02T09:30:46.857Z,101865.13
2023-04-02T09:33:41.352Z,101869.00
2023-04-02T09:36:29.493Z,101868.50
2023-04-02T09:39:18.317Z,101866.63
2023-04-02T09:42:08.535Z,101879.03
2023-04-02T09:44:54.419Z,101881.59
2023-04-02T09:47:42.297Z,101885.31
2023-04-02T09:50:29.307Z,101888.91
2023-04-02T09:53:26.794Z,101896.84
2023-04-02T09:56:15.008Z,101908.09
2023-04-02T09:59:04.820Z,101910.34
2023-04-02T10:02:00.609Z,101918.81
2023-04-02T10:04:47.956Z,101915.72
2023-04-02T10:07:35.396Z,101915.56
2023-04-02T10:10:24.557Z,101923.34
2023-04-02T10:13:18.687Z,101930.66
2023-04-02T10:16:05.082Z,101929.81
2023-04-02T10:18:51.870Z,101931.56
2023-04-02T10:21:38.521Z,101948.88
2023-04-02T10:24:24.679Z,101938.78
2023-04-02T10:27:17.022Z,101936.69
2023-04-02T10:30:07.838Z,101937.56
2023-04-02T10:32:55.964Z,101945.25
2023-04-02T10:35:42.740Z,101944.81
2023-04-02T10:38:31.364Z,101942.91
2023-04-02T10:41:20.024Z,101957.16
2023-04-02T10:44:19.538Z,101951.56
2023-04-02T10:47:10.897Z,101955.47
2023-04-02T10:49:59.522Z,101956.22
2023-04-02T10:52:46.484Z,101960.28
2023-04-02T10:55:33.238Z,101964.53
2023-04-02T10:58:21.767Z,101963.56
2023-04-02T11:01:08.814Z,101964.25
2023-04-02T11:03:58.083Z,101957.91
2023-04-02T11:06:44.791Z,101961.72
2023-04-02T11:09:32.385Z,101968.69
2023-04-02T11:12:20.777Z,101963.06
2023-04-02T11:15:07.292Z,101960.75
2023-04-02T11:17:53.578Z,101955.84
2023-04-02T11:20:45.247Z,101959.78
2023-04-02T11:23:36.157Z,101961.66
2023-04-02T11:26:29.666Z,101965.63
2023-04-02T11:29:16.948Z,101962.47
2023-04-02T11:32:27.263Z,101967.69
2023-04-02T11:35:28.173Z,101959.78
2023-04-02T11:38:33.159Z,101965.97
2023-04-02T11:41:38.048Z,101971.66
2023-04-02T11:44:25.677Z,101971.81
2023-04-02T11:47:15.365Z,101963.38
2023-04-02T11:50:05.212Z,101972.88
2023-04-02T11:52:51.995Z,101978.81
2023-04-02T11:55:38.296Z,101983.03
2023-04-02T11:58:30.746Z,101985.69
2023-04-02T12:01:38.346Z,101978.50
2023-04-02T12:04:39.012Z,101977.94
2023-04-02T12:07:52.306Z,101977.59
2023-04-02T12:10:50.634Z,101968.84
2023-04-02T12:13:50.697Z,101966.59
2023-04-02T12:16:36.401Z,101958.69
2023-04-02T12:19:22.188Z,101963.94
2023-04-02T12:22:14.013Z,101946.56
2023-04-02T12:25:02.058Z,101944.25
2023-04-02T12:27:47.872Z,101943.56
2023-04-02T12:30:34.003Z,101931.41
2023-04-02T12:33:28.104Z,101944.41
2023-04-02T12:36:21.280Z,101929.44
2023-04-02T12:39:14.722Z,101935.88
2023-04-02T12:42:02.290Z,101924.03
2023-04-02T12:44:49.273Z,101923.81
2023-04-02T12:47:36.321Z,101924.59
2023-04-02T12:50:22.789Z,101916.78
2023-04-02T12:53:11.083Z,101920.88
2023-04-02T12:55:57.142Z,101925.28
2023-04-02T12:58:44.726Z,101935.28
2023-04-02T13:01:31.499Z,101938.47
2023-04-02T13:04:17.683Z,101944.25
2023-04-02T13:07:03.690Z,101947.88
2023-04-02T13:09:49.972Z,101948.25
2023-04-02T13:12:36.221Z,101953.28
2023-04-02T13:15:25.066Z,101942.91
2023-04-02T13:18:19.409Z,101941.25
2023-04-02T13:21:06.005Z,101937.19
2023-04-02T13:23:52.263Z,101938.66
2023-04-02T13:26:37.985Z,101933.38
2023-04-02T13:29:25.334Z,101943.09
2023-04-02T13:32:13.149Z,101952.78
2023-04-02T13:34:59.141Z,101951.41
2023-04-02T13:37:44.960Z,101937.19
2023-04-02T13:40:31.076Z,101928.44
2023-04-02T13:43:18.112Z,101928.06
2023-04-02T13:46:03.985Z,101933.66
2023-04-02T13:48:51.418Z,101938.47
2023-04-02T13:51:37.990Z,101930.88
2023-04-02T13:54:24.630Z,101922.72
2023-04-02T13:57:11.442Z,101920.31
2023-04-02T13:59:57.965Z,101920.06
2023-04-02T14:02:46.209Z,101923.03
2023-04-02T14:05:37.038Z,101927.31
2023-04-02T14:08:24.159Z,101923.97
2023-04-02T14:11:13.752Z,101939.41
2023-04-02T14:14:04.270Z,101940.13
2023-04-02T14:16:52.408Z,101941.84
2023-04-02T14:19:43.340Z,101950.22
2023-04-02T14:22:34.310Z,101945.03
2023-04-02T14:25:21.805Z,101948.66
2023-04-02T14:28:08.357Z,101946.09
2023-04-02T14:30:56.912Z,101956.34
2023-04-02T14:33:44.695Z,101963.34
2023-04-02T14:36:31.887Z,101962.97
2023-04-02T14:39:21.384Z,101956.41
2023-04-02T14:42:08.399Z,101963.38
2023-04-02T14:45:03.152Z,101958.91
2023-04-02T14:47:50.790Z,101971.78
2023-04-02T14:50:38.584Z,101975.91
2023-04-02T14:53:26.333Z,101984.09
2023-04-02T14:56:13.714Z,101983.34
2023-04-02T14:59:04.092Z,101996.56
2023-04-02T15:01:50.595Z,102008.41
2023-04-02T15:04:38.027Z,102013.28
2023-04-02T15:07:24.530Z,102015.97
2023-04-02T15:10:12.532Z,102029.63
2023-04-02T15:13:01.156Z,102020.09
2023-04-02T15:15:47.542Z,102027.03
2023-04-02T15:18:33.798Z,102018.72
2023-04-02T15:21:31.340Z,102025.69
2023-04-02T15:24:18.637Z,102016.78
2023-04-02T15:27:14.700Z,102027.16
2023-04-02T15:30:07.361Z,102030.66
2023-04-02T15:32:54.199Z,102039.00
2023-04-02T15:35:41.653Z,102039.84
2023-04-02T15:38:28.905Z,102047.75
2023-04-02T15:41:15.357Z,102061.50
2023-04-02T15:44:03.479Z,102060.06
2023-04-02T15:46:53.111Z,102065.31
2023-04-02T15:49:41.356Z,102066.34
2023-04-02T15:52:30.346Z,102067.00
2023-04-02T15:55:19.877Z,102057.91
2023-04-02T15:58:19.710Z,102069.78
2023-04-02T16:01:08.330Z,102070.66
2023-04-02T16:04:07.496Z,102078.03
2023-04-02T16:07:00.354Z,102091.22
2023-04-02T16:09:48.115Z,102095.13
2023-04-02T16:12:34.620Z,102098.09
2023-04-02T16:15:23.541Z,102099.56
2023-04-02T16:18:11.149Z,102116.53
2023-04-02T16:20:58.487Z,102124.97
2023-04-02T16:23:45.097Z,102119.53
2023-04-02T16:26:33.215Z,102137.41
2023-04-02T16:29:26.158Z,102146.97
2023-04-02T16:32:15.225Z,102156.69
2023-04-02T16:37:57.534Z,102165.34
2023-04-02T16:40:49.595Z,102178.06
2023-04-02T16:43:45.783Z,102173.66
2023-04-02T16:46:39.751Z,102184.72
2023-04-02T16:49:28.022Z,102189.63
2023-04-02T16:52:21.053Z,102185.41
2023-04-02T16:55:19.554Z,102185.59
2023-04-02T16:58:08.992Z,102187.59
2023-04-02T17:00:56.142Z,102200.91
2023-04-02T17:03:52.576Z,102205.16
2023-04-02T17:06:41.958Z,102213.09
2023-04-02T17:09:31.533Z,102220.44
2023-04-02T17:12:20.767Z,102228.59
2023-04-02T17:15:20.682Z,102232.19
2023-04-02T17:18:15.295Z,102230.41
2023-04-02T17:21:03.020Z,102230.09
2023-04-02T17:23:55.705Z,102234.06
2023-04-02T17:26:43.438Z,102242.56
2023-04-02T17:29:32.611Z,102240.75
2023-04-02T17:32:19.795Z,102248.66
2023-04-02T17:35:13.336Z,102250.66
2023-04-02T17:38:00.182Z,102256.66
2023-04-02T17:40:48.147Z,102258.72
2023-04-02T17:43:36.318Z,102263.88
2023-04-02T17:46:24.780Z,102269.06
2023-04-02T17:49:13.650Z,102281.25
2023-04-02T17:52:01.237Z,102284.69
2023-04-02T17:54:48.924Z,102277.03
2023-04-02T17:57:38.498Z,102294.81
2023-04-02T18:00:29.726Z,102292.97
2023-04-02T18:03:26.817Z,102295.19
2023-04-02T18:06:15.420Z,102303.03
2023-04-02T18:09:07.032Z,102297.25
2023-04-02T18:11:54.814Z,102311.19
2023-04-02T18:14:48.652Z,102319.97
2023-04-02T18:17:36.609Z,102327.38
2023-04-02T18:20:27.434Z,102333.81
2023-04-02T18:23:15.004Z,102337.91
2023-04-02T18:26:02.653Z,102344.78
2023-04-02T18:28:50.982Z,102346.06
2023-04-02T18:31:39.228Z,102353.13
2023-04-02T18:34:31.981Z,102351.69
2023-04-02T18:37:22.420Z,102342.66
2023-04-02T18:40:27.118Z,102348.63
2023-04-02T18:43:17.321Z,102355.72
2023-04-02T18:46:05.023Z,102359.81
2023-04-02T18:48:53.524Z,102376.72
2023-04-02T18:51:39.731Z,102375.88
2023-04-02T18:54:28.405Z,102391.97
2023-04-02T18:57:14.583Z,102394.06
2023-04-02T19:00:02.112Z,102407.84
2023-04-02T19:02:48.338Z,102409.16
2023-04-02T19:05:39.075Z,102420.63
2023-04-02T19:08:26.193Z,102426.22
2023-04-02T19:11:14.563Z,102432.06
2023-04-02T19:14:01.129Z,102436.13
2023-04-02T19:17:01.425Z,102449.03
2023-04-02T19:19:48.071Z,102447.72
2023-04-02T19:22:36.350Z,102461.38
2023-04-02T19:25:30.205Z,102461.28
2023-04-02T19:28:19.097Z,102457.88
2023-04-02T19:31:16.721Z,102468.97
2023-04-02T19:34:03.873Z,102477.13
2023-04-02T19:36:52.796Z,102479.38
2023-04-02T19:39:48.536Z,102478.47
2023-04-02T19:42:41.279Z,102491.22
2023-04-02T19:45:30.967Z,102499.09
2023-04-02T19:48:18.434Z,102500.16
2023-04-02T19:51:04.734Z,102502.31
2023-04-02T19:53:50.545Z,102513.81
2023-04-02T19:56:37.371Z,102514.28
2023-04-02T19:59:23.455Z,102530.34
2023-04-02T20:02:11.392Z,102527.84
2023-04-02T20:04:57.540Z,102539.63
2023-04-02T20:07:43.640Z,102533.59
2023-04-02T20:10:29.571Z,102532.16
2023-04-02T20:13:15.568Z,102542.66
2023-04-02T20:16:04.397Z,102544.63
2023-04-02T20:18:51.866Z,102553.53
2023-04-02T20:21:38.971Z,102555.34
2023-04-02T20:24:27.670Z,102569.66
2023-04-02T20:27:13.765Z,102570.63
2023-04-02T20:29:59.598Z,102578.69
2023-04-02T20:32:46.020Z,102581.47
2023-04-02T20:35:34.531Z,102586.25
2023-04-02T20:38:20.566Z,102588.34
2023-04-02T20:41:07.201Z,102592.72
2023-04-02T20:43:53.581Z,102601.88
2023-04-02T20:46:39.876Z,102597.84
2023-04-02T20:49:26.442Z,102600.84
2023-04-02T20:52:13.737Z,102605.41
2023-04-02T20:54:59.896Z,102604.69
2023-04-02T20:57:45.770Z,102609.91
2023-04-02T21:00:31.564Z,102615.47
2023-04-02T21:03:17.898Z,102617.41
2023-04-02T21:06:04.156Z,102628.88
2023-04-02T21:08:52.006Z,102632.56
2023-04-02T21:11:38.113Z,102639.72
2023-04-02T21:14:24.371Z,102641.66
2023-04-02T21:17:10.303Z,102650.63
2023-04-02T21:19:56.739Z,102655.97
2023-04-02T21:22:42.931Z,102661.31
2023-04-02T21:25:30.484Z,102671.84
2023-04-02T21:28:17.653Z,102669.38
2023-04-02T21:31:05.084Z,102672.09
2023-04-02T21:33:51.958Z,102677.44
2023-04-02T21:36:39.169Z,102689.66
2023-04-02T21:39:25.210Z,102697.03
2023-04-02T21:42:14.265Z,102691.94
2023-04-02T21:45:00.138Z,102698.19
2023-04-02T21:47:46.520Z,102700.97
2023-04-02T21:50:32.472Z,102702.06
2023-04-02T21:53:18.177Z,102708.31
2023-04-02T21:56:04.446Z,102707.44
2023-04-02T21:58:51.759Z,102713.63
2023-04-02T22:01:38.538Z,102721.72
2023-04-02T22:04:25.533Z,102721.00
2023-04-02T22:07:11.641Z,102719.31
2023-04-02T22:09:57.710Z,102723.69
2023-04-02T22:12:43.663Z,102725.47
2023-04-02T22:15:31.932Z,102731.66
2023-04-02T22:18:18.104Z,102728.28
2023-04-02T22:21:04.195Z,102738.03
2023-04-02T22:23:50.989Z,102738.97
2023-04-02T22:26:36.802Z,102741.69
2023-04-02T22:29:22.912Z,102744.38
2023-04-02T22:32:10.271Z,102742.66
2023-04-02T22:34:56.622Z,102742.78
2023-04-02T22:37:43.217Z,102746.34
2023-04-02T22:40:29.589Z,102758.72
2023-04-02T22:43:15.477Z,102763.91
2023-04-02T22:46:02.317Z,102768.38
2023-04-02T22:48:49.713Z,102771.09
2023-04-02T22:51:38.624Z,102773.97
2023-04-02T22:54:24.635Z,102774.00
2023-04-02T22:57:11.713Z,102778.47
2023-04-02T23:00:05.823Z,102781.25
2023-04-02T23:03:00.737Z,102789.22
2023-04-02T23:05:55.525Z,102790.19
2023-04-02T23:08:47.033Z,102784.31
2023-04-02T23:11:39.094Z,102792.94
2023-04-02T23:14:25.330Z,102799.16
2023-04-02T23:17:11.264Z,102785.25
2023-04-02T23:19:56.975Z,102790.56
2023-04-02T23:22:43.890Z,102800.25
2023-04-02T23:25:29.537Z,102795.13
2023-04-02T23:28:15.611Z,102809.09
2023-04-02T23:31:02.326Z,102808.31
2023-04-02T23:33:48.282Z,102805.72
2023-04-02T23:36:34.731Z,102809.25
2023-04-02T23:39:22.905Z,102813.75
2023-04-02T23:42:09.191Z,102809.38
2023-04-02T23:44:55.842Z,102818.94
2023-04-02T23:47:41.649Z,102819.06
2023-04-02T23:50:27.990Z,102829.50
2023-04-02T23:53:13.860Z,102822.66
2023-04-02T23:56:01.048Z,102826.00
2023-04-02T23:58:46.842Z,102833.06
